sensor_id;sensor_type;location;lat;lon;timestamp;P1;durP1;ratioP1;P2;durP2;ratioP2
65071;SDS011;51663;52.310;17.016;2023-02-10T00:00:45;32.57;;;17.40;;
65071;SDS011;51663;52.310;17.016;2023-02-10T00:03:59;36.13;;;18.40;;
65071;SDS011;51663;52.310;17.016;2023-02-10T00:07:01;36.23;;;18.00;;
65071;SDS011;51663;52.310;17.016;2023-02-10T00:10:03;31.77;;;17.00;;
65071;SDS011;51663;52.310;17.016;2023-02-10T00:13:06;34.10;;;16.97;;
65071;SDS011;51663;52.310;17.016;2023-02-10T00:16:09;36.10;;;17.80;;
65071;SDS011;51663;52.310;17.016;2023-02-10T00:19:13;32.93;;;16.97;;
65071;SDS011;51663;52.310;17.016;2023-02-10T00:22:15;33.13;;;16.53;;
65071;SDS011;51663;52.310;17.016;2023-02-10T00:25:18;35.07;;;16.87;;
65071;SDS011;51663;52.310;17.016;2023-02-10T00:28:20;34.80;;;17.20;;
65071;SDS011;51663;52.310;17.016;2023-02-10T00:31:22;33.10;;;16.47;;
65071;SDS011;51663;52.310;17.016;2023-02-10T00:34:24;36.93;;;16.93;;
65071;SDS011;51663;52.310;17.016;2023-02-10T00:37:28;34.23;;;17.17;;
65071;SDS011;51663;52.310;17.016;2023-02-10T00:40:30;30.17;;;16.93;;
65071;SDS011;51663;52.310;17.016;2023-02-10T00:43:33;35.10;;;18.60;;
65071;SDS011;51663;52.310;17.016;2023-02-10T00:46:35;31.47;;;16.70;;
65071;SDS011;51663;52.310;17.016;2023-02-10T00:49:38;33.00;;;17.07;;
65071;SDS011;51663;52.310;17.016;2023-02-10T00:52:40;33.10;;;16.03;;
65071;SDS011;51663;52.310;17.016;2023-02-10T00:55:42;31.93;;;16.50;;
65071;SDS011;51663;52.310;17.016;2023-02-10T00:58:44;29.50;;;16.50;;
65071;SDS011;51663;52.310;17.016;2023-02-10T01:01:47;33.47;;;17.27;;
65071;SDS011;51663;52.310;17.016;2023-02-10T01:04:49;30.27;;;16.40;;
65071;SDS011;51663;52.310;17.016;2023-02-10T01:07:51;36.93;;;17.60;;
65071;SDS011;51663;52.310;17.016;2023-02-10T01:11:12;31.93;;;17.07;;
65071;SDS011;51663;52.310;17.016;2023-02-10T01:14:14;32.43;;;17.23;;
65071;SDS011;51663;52.310;17.016;2023-02-10T01:17:17;37.00;;;17.17;;
65071;SDS011;51663;52.310;17.016;2023-02-10T01:20:20;33.93;;;16.47;;
65071;SDS011;51663;52.310;17.016;2023-02-10T01:23:22;34.60;;;16.40;;
65071;SDS011;51663;52.310;17.016;2023-02-10T01:26:25;31.70;;;16.47;;
65071;SDS011;51663;52.310;17.016;2023-02-10T01:29:27;29.53;;;16.10;;
65071;SDS011;51663;52.310;17.016;2023-02-10T01:32:29;30.00;;;15.80;;
65071;SDS011;51663;52.310;17.016;2023-02-10T01:35:31;31.80;;;16.10;;
65071;SDS011;51663;52.310;17.016;2023-02-10T01:38:34;29.57;;;15.83;;
65071;SDS011;51663;52.310;17.016;2023-02-10T01:41:37;25.90;;;15.73;;
65071;SDS011;51663;52.310;17.016;2023-02-10T01:47:42;28.60;;;15.90;;
65071;SDS011;51663;52.310;17.016;2023-02-10T01:50:47;32.53;;;15.73;;
65071;SDS011;51663;52.310;17.016;2023-02-10T01:53:54;28.90;;;16.00;;
65071;SDS011;51663;52.310;17.016;2023-02-10T01:56:57;27.67;;;14.97;;
65071;SDS011;51663;52.310;17.016;2023-02-10T02:00:01;46.70;;;15.90;;
65071;SDS011;51663;52.310;17.016;2023-02-10T02:03:05;38.00;;;15.93;;
65071;SDS011;51663;52.310;17.016;2023-02-10T02:06:08;31.00;;;16.23;;
65071;SDS011;51663;52.310;17.016;2023-02-10T02:09:10;31.70;;;16.37;;
65071;SDS011;51663;52.310;17.016;2023-02-10T02:15:57;26.60;;;15.20;;
65071;SDS011;51663;52.310;17.016;2023-02-10T02:30:16;25.47;;;14.33;;
65071;SDS011;51663;52.310;17.016;2023-02-10T02:36:48;31.77;;;14.30;;
65071;SDS011;51663;52.310;17.016;2023-02-10T02:39:56;28.63;;;14.87;;
65071;SDS011;51663;52.310;17.016;2023-02-10T02:42:59;23.40;;;13.93;;
65071;SDS011;51663;52.310;17.016;2023-02-10T02:46:11;26.87;;;14.30;;
65071;SDS011;51663;52.310;17.016;2023-02-10T02:49:33;26.37;;;14.07;;
65071;SDS011;51663;52.310;17.016;2023-02-10T02:59:22;24.37;;;14.03;;
65071;SDS011;51663;52.310;17.016;2023-02-10T03:02:47;24.17;;;14.00;;
65071;SDS011;51663;52.310;17.016;2023-02-10T03:05:49;27.50;;;14.47;;
65071;SDS011;51663;52.310;17.016;2023-02-10T03:08:51;24.10;;;14.30;;
65071;SDS011;51663;52.310;17.016;2023-02-10T03:11:54;24.37;;;13.73;;
65071;SDS011;51663;52.310;17.016;2023-02-10T03:14:57;24.70;;;13.63;;
65071;SDS011;51663;52.310;17.016;2023-02-10T03:17:59;26.50;;;14.57;;
65071;SDS011;51663;52.310;17.016;2023-02-10T03:21:01;24.27;;;13.57;;
65071;SDS011;51663;52.310;17.016;2023-02-10T03:24:03;25.83;;;14.93;;
65071;SDS011;51663;52.310;17.016;2023-02-10T03:27:06;25.20;;;13.87;;
65071;SDS011;51663;52.310;17.016;2023-02-10T03:30:08;29.40;;;13.90;;
65071;SDS011;51663;52.310;17.016;2023-02-10T03:33:11;24.33;;;14.60;;
65071;SDS011;51663;52.310;17.016;2023-02-10T03:36:13;23.93;;;14.80;;
65071;SDS011;51663;52.310;17.016;2023-02-10T03:39:15;25.47;;;14.53;;
65071;SDS011;51663;52.310;17.016;2023-02-10T03:42:17;25.40;;;14.37;;
65071;SDS011;51663;52.310;17.016;2023-02-10T03:45:19;25.73;;;14.30;;
65071;SDS011;51663;52.310;17.016;2023-02-10T03:48:22;23.83;;;13.90;;
65071;SDS011;51663;52.310;17.016;2023-02-10T03:51:28;25.70;;;14.63;;
65071;SDS011;51663;52.310;17.016;2023-02-10T03:54:30;24.57;;;14.63;;
65071;SDS011;51663;52.310;17.016;2023-02-10T03:57:33;29.43;;;15.43;;
65071;SDS011;51663;52.310;17.016;2023-02-10T04:00:35;27.00;;;14.77;;
65071;SDS011;51663;52.310;17.016;2023-02-10T04:03:37;27.37;;;15.23;;
65071;SDS011;51663;52.310;17.016;2023-02-10T04:06:40;26.73;;;15.50;;
65071;SDS011;51663;52.310;17.016;2023-02-10T04:09:42;24.70;;;14.43;;
65071;SDS011;51663;52.310;17.016;2023-02-10T04:12:44;28.30;;;16.00;;
65071;SDS011;51663;52.310;17.016;2023-02-10T04:15:47;27.47;;;15.57;;
65071;SDS011;51663;52.310;17.016;2023-02-10T04:18:49;26.03;;;14.93;;
65071;SDS011;51663;52.310;17.016;2023-02-10T04:21:52;30.97;;;15.67;;
65071;SDS011;51663;52.310;17.016;2023-02-10T04:24:54;36.53;;;15.53;;
65071;SDS011;51663;52.310;17.016;2023-02-10T04:27:56;27.20;;;14.93;;
65071;SDS011;51663;52.310;17.016;2023-02-10T04:30:59;28.73;;;16.70;;
65071;SDS011;51663;52.310;17.016;2023-02-10T04:34:02;28.40;;;15.70;;
65071;SDS011;51663;52.310;17.016;2023-02-10T04:37:04;25.47;;;15.07;;
65071;SDS011;51663;52.310;17.016;2023-02-10T04:40:08;26.60;;;15.40;;
65071;SDS011;51663;52.310;17.016;2023-02-10T04:43:10;28.93;;;14.90;;
65071;SDS011;51663;52.310;17.016;2023-02-10T04:46:13;29.57;;;15.90;;
65071;SDS011;51663;52.310;17.016;2023-02-10T04:49:15;36.27;;;16.80;;
65071;SDS011;51663;52.310;17.016;2023-02-10T04:52:18;28.70;;;16.33;;
65071;SDS011;51663;52.310;17.016;2023-02-10T04:55:21;30.90;;;15.80;;
65071;SDS011;51663;52.310;17.016;2023-02-10T04:58:23;28.37;;;16.50;;
65071;SDS011;51663;52.310;17.016;2023-02-10T05:01:25;29.03;;;15.97;;
65071;SDS011;51663;52.310;17.016;2023-02-10T05:04:27;32.47;;;17.77;;
65071;SDS011;51663;52.310;17.016;2023-02-10T05:07:30;29.93;;;16.53;;
65071;SDS011;51663;52.310;17.016;2023-02-10T05:10:32;36.03;;;17.43;;
65071;SDS011;51663;52.310;17.016;2023-02-10T05:13:34;32.03;;;17.17;;
65071;SDS011;51663;52.310;17.016;2023-02-10T05:16:37;33.77;;;16.67;;
65071;SDS011;51663;52.310;17.016;2023-02-10T05:19:39;37.93;;;17.43;;
65071;SDS011;51663;52.310;17.016;2023-02-10T05:22:41;40.53;;;17.30;;
65071;SDS011;51663;52.310;17.016;2023-02-10T05:25:43;33.30;;;15.87;;
65071;SDS011;51663;52.310;17.016;2023-02-10T05:28:46;39.40;;;17.70;;
65071;SDS011;51663;52.310;17.016;2023-02-10T05:31:48;36.77;;;18.03;;
65071;SDS011;51663;52.310;17.016;2023-02-10T05:34:51;39.87;;;16.43;;
65071;SDS011;51663;52.310;17.016;2023-02-10T05:37:53;34.70;;;17.33;;
65071;SDS011;51663;52.310;17.016;2023-02-10T05:40:55;30.30;;;16.97;;
65071;SDS011;51663;52.310;17.016;2023-02-10T05:43:57;32.67;;;16.00;;
65071;SDS011;51663;52.310;17.016;2023-02-10T05:47:00;35.00;;;16.47;;
65071;SDS011;51663;52.310;17.016;2023-02-10T05:50:05;42.93;;;17.30;;
65071;SDS011;51663;52.310;17.016;2023-02-10T05:53:07;28.10;;;15.50;;
65071;SDS011;51663;52.310;17.016;2023-02-10T05:56:10;29.10;;;15.87;;
65071;SDS011;51663;52.310;17.016;2023-02-10T05:59:12;30.00;;;15.53;;
65071;SDS011;51663;52.310;17.016;2023-02-10T06:02:16;39.30;;;16.60;;
65071;SDS011;51663;52.310;17.016;2023-02-10T06:05:18;28.63;;;16.77;;
65071;SDS011;51663;52.310;17.016;2023-02-10T06:08:20;33.03;;;17.27;;
65071;SDS011;51663;52.310;17.016;2023-02-10T06:11:22;30.47;;;17.23;;
65071;SDS011;51663;52.310;17.016;2023-02-10T06:14:24;31.67;;;16.73;;
65071;SDS011;51663;52.310;17.016;2023-02-10T06:17:27;29.93;;;17.33;;
65071;SDS011;51663;52.310;17.016;2023-02-10T06:20:29;34.30;;;17.37;;
65071;SDS011;51663;52.310;17.016;2023-02-10T06:23:31;35.63;;;17.33;;
65071;SDS011;51663;52.310;17.016;2023-02-10T06:26:33;30.97;;;16.30;;
65071;SDS011;51663;52.310;17.016;2023-02-10T06:29:35;35.63;;;18.23;;
65071;SDS011;51663;52.310;17.016;2023-02-10T06:32:37;30.20;;;17.03;;
65071;SDS011;51663;52.310;17.016;2023-02-10T06:35:40;33.73;;;17.53;;
65071;SDS011;51663;52.310;17.016;2023-02-10T06:38:43;33.43;;;17.83;;
65071;SDS011;51663;52.310;17.016;2023-02-10T06:41:45;35.80;;;18.03;;
65071;SDS011;51663;52.310;17.016;2023-02-10T06:44:47;31.97;;;17.03;;
65071;SDS011;51663;52.310;17.016;2023-02-10T06:47:49;34.27;;;18.00;;
65071;SDS011;51663;52.310;17.016;2023-02-10T06:50:52;35.60;;;18.23;;
65071;SDS011;51663;52.310;17.016;2023-02-10T06:53:55;37.20;;;18.30;;
65071;SDS011;51663;52.310;17.016;2023-02-10T06:56:57;33.77;;;18.80;;
65071;SDS011;51663;52.310;17.016;2023-02-10T07:00:00;33.83;;;19.27;;
65071;SDS011;51663;52.310;17.016;2023-02-10T07:03:03;47.30;;;19.93;;
65071;SDS011;51663;52.310;17.016;2023-02-10T07:06:05;35.20;;;18.30;;
65071;SDS011;51663;52.310;17.016;2023-02-10T07:09:08;37.43;;;18.07;;
65071;SDS011;51663;52.310;17.016;2023-02-10T07:12:10;39.97;;;19.73;;
65071;SDS011;51663;52.310;17.016;2023-02-10T07:15:12;35.10;;;19.40;;
65071;SDS011;51663;52.310;17.016;2023-02-10T07:18:24;38.23;;;20.23;;
65071;SDS011;51663;52.310;17.016;2023-02-10T07:21:26;44.23;;;20.80;;
65071;SDS011;51663;52.310;17.016;2023-02-10T07:24:28;41.10;;;20.33;;
65071;SDS011;51663;52.310;17.016;2023-02-10T07:27:31;40.13;;;19.70;;
65071;SDS011;51663;52.310;17.016;2023-02-10T07:30:33;36.70;;;19.57;;
65071;SDS011;51663;52.310;17.016;2023-02-10T07:33:35;39.90;;;19.47;;
65071;SDS011;51663;52.310;17.016;2023-02-10T07:36:37;45.60;;;21.43;;
65071;SDS011;51663;52.310;17.016;2023-02-10T07:39:39;36.83;;;19.50;;
65071;SDS011;51663;52.310;17.016;2023-02-10T07:42:42;34.77;;;18.63;;
65071;SDS011;51663;52.310;17.016;2023-02-10T07:45:44;36.43;;;18.80;;
65071;SDS011;51663;52.310;17.016;2023-02-10T07:48:46;35.67;;;19.80;;
65071;SDS011;51663;52.310;17.016;2023-02-10T07:51:49;35.53;;;19.60;;
65071;SDS011;51663;52.310;17.016;2023-02-10T07:54:51;37.50;;;18.57;;
65071;SDS011;51663;52.310;17.016;2023-02-10T07:57:53;37.03;;;20.23;;
65071;SDS011;51663;52.310;17.016;2023-02-10T08:00:55;42.30;;;20.90;;
65071;SDS011;51663;52.310;17.016;2023-02-10T08:03:58;44.53;;;20.80;;
65071;SDS011;51663;52.310;17.016;2023-02-10T08:07:00;39.33;;;21.43;;
65071;SDS011;51663;52.310;17.016;2023-02-10T08:10:02;49.10;;;20.77;;
65071;SDS011;51663;52.310;17.016;2023-02-10T08:13:05;35.83;;;19.73;;
65071;SDS011;51663;52.310;17.016;2023-02-10T08:16:07;42.97;;;20.90;;
65071;SDS011;51663;52.310;17.016;2023-02-10T08:19:12;42.80;;;20.10;;
65071;SDS011;51663;52.310;17.016;2023-02-10T08:22:15;36.33;;;21.50;;
65071;SDS011;51663;52.310;17.016;2023-02-10T08:25:17;43.67;;;24.57;;
65071;SDS011;51663;52.310;17.016;2023-02-10T08:28:19;51.17;;;22.57;;
65071;SDS011;51663;52.310;17.016;2023-02-10T08:31:23;47.70;;;21.80;;
65071;SDS011;51663;52.310;17.016;2023-02-10T08:34:25;44.97;;;22.03;;
65071;SDS011;51663;52.310;17.016;2023-02-10T08:37:27;39.60;;;20.17;;
65071;SDS011;51663;52.310;17.016;2023-02-10T08:40:30;38.93;;;20.83;;
65071;SDS011;51663;52.310;17.016;2023-02-10T08:43:33;42.47;;;22.10;;
65071;SDS011;51663;52.310;17.016;2023-02-10T08:46:35;40.43;;;20.50;;
65071;SDS011;51663;52.310;17.016;2023-02-10T08:49:38;38.80;;;22.07;;
65071;SDS011;51663;52.310;17.016;2023-02-10T08:52:40;41.10;;;21.20;;
65071;SDS011;51663;52.310;17.016;2023-02-10T08:55:43;37.27;;;20.70;;
65071;SDS011;51663;52.310;17.016;2023-02-10T08:58:45;37.87;;;20.50;;
65071;SDS011;51663;52.310;17.016;2023-02-10T09:01:47;38.33;;;22.20;;
65071;SDS011;51663;52.310;17.016;2023-02-10T09:04:50;43.53;;;22.17;;
65071;SDS011;51663;52.310;17.016;2023-02-10T09:08:09;41.50;;;22.03;;
65071;SDS011;51663;52.310;17.016;2023-02-10T09:11:11;39.23;;;22.50;;
65071;SDS011;51663;52.310;17.016;2023-02-10T09:14:13;42.67;;;22.73;;
65071;SDS011;51663;52.310;17.016;2023-02-10T09:17:16;42.03;;;21.93;;
65071;SDS011;51663;52.310;17.016;2023-02-10T09:20:18;38.30;;;21.57;;
65071;SDS011;51663;52.310;17.016;2023-02-10T09:23:20;41.03;;;21.90;;
65071;SDS011;51663;52.310;17.016;2023-02-10T09:26:22;40.83;;;21.53;;
65071;SDS011;51663;52.310;17.016;2023-02-10T09:29:24;40.20;;;21.70;;
65071;SDS011;51663;52.310;17.016;2023-02-10T09:32:27;43.50;;;21.07;;
65071;SDS011;51663;52.310;17.016;2023-02-10T09:35:29;40.03;;;22.40;;
65071;SDS011;51663;52.310;17.016;2023-02-10T09:38:31;37.90;;;21.33;;
65071;SDS011;51663;52.310;17.016;2023-02-10T09:41:44;41.00;;;21.70;;
65071;SDS011;51663;52.310;17.016;2023-02-10T09:45:29;39.57;;;21.23;;
65071;SDS011;51663;52.310;17.016;2023-02-10T09:48:57;38.40;;;21.20;;
65071;SDS011;51663;52.310;17.016;2023-02-10T09:52:21;42.67;;;21.57;;
65071;SDS011;51663;52.310;17.016;2023-02-10T09:58:54;36.70;;;21.13;;
65071;SDS011;51663;52.310;17.016;2023-02-10T10:01:58;41.37;;;22.00;;
65071;SDS011;51663;52.310;17.016;2023-02-10T10:05:11;35.87;;;21.03;;
65071;SDS011;51663;52.310;17.016;2023-02-10T10:08:22;41.20;;;23.07;;
65071;SDS011;51663;52.310;17.016;2023-02-10T10:14:42;41.23;;;22.67;;
65071;SDS011;51663;52.310;17.016;2023-02-10T10:17:51;40.30;;;20.83;;
65071;SDS011;51663;52.310;17.016;2023-02-10T10:21:08;40.23;;;21.70;;
65071;SDS011;51663;52.310;17.016;2023-02-10T10:25:03;41.70;;;21.83;;
65071;SDS011;51663;52.310;17.016;2023-02-10T10:31:16;42.10;;;22.23;;
65071;SDS011;51663;52.310;17.016;2023-02-10T10:34:20;38.27;;;21.80;;
65071;SDS011;51663;52.310;17.016;2023-02-10T10:37:25;40.77;;;21.40;;
65071;SDS011;51663;52.310;17.016;2023-02-10T10:40:29;38.23;;;21.70;;
65071;SDS011;51663;52.310;17.016;2023-02-10T10:46:52;43.33;;;21.53;;
65071;SDS011;51663;52.310;17.016;2023-02-10T10:50:04;40.40;;;22.13;;
65071;SDS011;51663;52.310;17.016;2023-02-10T10:56:49;44.60;;;22.23;;
65071;SDS011;51663;52.310;17.016;2023-02-10T11:00:03;39.67;;;22.60;;
65071;SDS011;51663;52.310;17.016;2023-02-10T11:03:05;40.53;;;22.10;;
65071;SDS011;51663;52.310;17.016;2023-02-10T11:06:08;45.23;;;23.87;;
65071;SDS011;51663;52.310;17.016;2023-02-10T11:09:30;39.63;;;22.80;;
65071;SDS011;51663;52.310;17.016;2023-02-10T11:12:39;45.70;;;23.93;;
65071;SDS011;51663;52.310;17.016;2023-02-10T11:15:42;40.93;;;22.97;;
65071;SDS011;51663;52.310;17.016;2023-02-10T11:18:54;45.63;;;22.40;;
65071;SDS011;51663;52.310;17.016;2023-02-10T11:21:58;36.87;;;20.27;;
65071;SDS011;51663;52.310;17.016;2023-02-10T11:25:01;47.73;;;23.37;;
65071;SDS011;51663;52.310;17.016;2023-02-10T11:28:25;45.57;;;23.40;;
65071;SDS011;51663;52.310;17.016;2023-02-10T11:31:31;45.10;;;23.33;;
65071;SDS011;51663;52.310;17.016;2023-02-10T11:34:39;45.37;;;23.70;;
65071;SDS011;51663;52.310;17.016;2023-02-10T11:38:06;42.50;;;23.73;;
65071;SDS011;51663;52.310;17.016;2023-02-10T11:41:18;45.50;;;23.27;;
65071;SDS011;51663;52.310;17.016;2023-02-10T11:44:31;41.73;;;22.90;;
65071;SDS011;51663;52.310;17.016;2023-02-10T11:47:34;49.20;;;23.40;;
65071;SDS011;51663;52.310;17.016;2023-02-10T11:50:36;46.03;;;23.10;;
65071;SDS011;51663;52.310;17.016;2023-02-10T11:53:38;44.47;;;22.77;;
65071;SDS011;51663;52.310;17.016;2023-02-10T11:56:46;43.73;;;22.03;;
65071;SDS011;51663;52.310;17.016;2023-02-10T12:03:41;49.70;;;24.23;;
65071;SDS011;51663;52.310;17.016;2023-02-10T12:13:32;44.87;;;23.97;;
65071;SDS011;51663;52.310;17.016;2023-02-10T12:37:00;47.70;;;22.47;;
65071;SDS011;51663;52.310;17.016;2023-02-10T12:54:09;51.03;;;23.90;;
65071;SDS011;51663;52.310;17.016;2023-02-10T13:00:46;46.10;;;23.17;;
65071;SDS011;51663;52.310;17.016;2023-02-10T13:03:56;44.03;;;21.63;;
65071;SDS011;51663;52.310;17.016;2023-02-10T13:07:36;38.00;;;22.37;;
65071;SDS011;51663;52.310;17.016;2023-02-10T13:10:54;40.17;;;22.20;;
65071;SDS011;51663;52.310;17.016;2023-02-10T13:14:01;42.30;;;22.77;;
65071;SDS011;51663;52.310;17.016;2023-02-10T13:17:10;43.30;;;21.33;;
65071;SDS011;51663;52.310;17.016;2023-02-10T13:20:19;37.50;;;20.17;;
65071;SDS011;51663;52.310;17.016;2023-02-10T13:26:55;39.73;;;20.70;;
65071;SDS011;51663;52.310;17.016;2023-02-10T13:36:42;40.83;;;21.30;;
65071;SDS011;51663;52.310;17.016;2023-02-10T13:39:50;51.97;;;23.30;;
65071;SDS011;51663;52.310;17.016;2023-02-10T13:42:58;50.60;;;23.30;;
65071;SDS011;51663;52.310;17.016;2023-02-10T13:46:03;40.33;;;21.80;;
65071;SDS011;51663;52.310;17.016;2023-02-10T13:49:11;42.27;;;21.77;;
65071;SDS011;51663;52.310;17.016;2023-02-10T13:52:20;41.43;;;21.00;;
65071;SDS011;51663;52.310;17.016;2023-02-10T13:55:45;41.17;;;21.20;;
65071;SDS011;51663;52.310;17.016;2023-02-10T14:02:01;45.53;;;22.27;;
65071;SDS011;51663;52.310;17.016;2023-02-10T14:05:23;43.50;;;22.27;;
65071;SDS011;51663;52.310;17.016;2023-02-10T14:08:37;44.50;;;21.60;;
65071;SDS011;51663;52.310;17.016;2023-02-10T14:11:58;45.93;;;22.37;;
65071;SDS011;51663;52.310;17.016;2023-02-10T14:15:19;37.50;;;19.60;;
65071;SDS011;51663;52.310;17.016;2023-02-10T14:21:27;43.73;;;20.73;;
65071;SDS011;51663;52.310;17.016;2023-02-10T14:24:43;41.70;;;21.07;;
65071;SDS011;51663;52.310;17.016;2023-02-10T14:27:52;41.37;;;21.03;;
65071;SDS011;51663;52.310;17.016;2023-02-10T14:30:57;36.87;;;19.80;;
65071;SDS011;51663;52.310;17.016;2023-02-10T14:34:20;46.93;;;21.33;;
65071;SDS011;51663;52.310;17.016;2023-02-10T14:37:25;47.83;;;22.60;;
65071;SDS011;51663;52.310;17.016;2023-02-10T14:40:28;43.47;;;21.30;;
65071;SDS011;51663;52.310;17.016;2023-02-10T14:43:34;41.57;;;21.30;;
65071;SDS011;51663;52.310;17.016;2023-02-10T14:46:38;41.73;;;20.00;;
65071;SDS011;51663;52.310;17.016;2023-02-10T14:49:41;42.87;;;21.17;;
65071;SDS011;51663;52.310;17.016;2023-02-10T14:52:47;43.83;;;20.67;;
65071;SDS011;51663;52.310;17.016;2023-02-10T14:55:54;50.53;;;22.77;;
65071;SDS011;51663;52.310;17.016;2023-02-10T14:58:58;40.47;;;20.83;;
65071;SDS011;51663;52.310;17.016;2023-02-10T15:02:05;36.00;;;19.97;;
65071;SDS011;51663;52.310;17.016;2023-02-10T15:05:18;42.77;;;21.63;;
65071;SDS011;51663;52.310;17.016;2023-02-10T15:08:26;38.23;;;20.23;;
65071;SDS011;51663;52.310;17.016;2023-02-10T15:11:37;41.93;;;20.40;;
65071;SDS011;51663;52.310;17.016;2023-02-10T15:18:30;40.17;;;20.00;;
65071;SDS011;51663;52.310;17.016;2023-02-10T15:21:37;43.00;;;21.83;;
65071;SDS011;51663;52.310;17.016;2023-02-10T15:24:40;45.57;;;21.20;;
65071;SDS011;51663;52.310;17.016;2023-02-10T15:27:42;42.97;;;21.77;;
65071;SDS011;51663;52.310;17.016;2023-02-10T15:34:22;46.80;;;21.73;;
65071;SDS011;51663;52.310;17.016;2023-02-10T15:37:28;45.70;;;22.27;;
65071;SDS011;51663;52.310;17.016;2023-02-10T15:40:33;48.60;;;24.50;;
65071;SDS011;51663;52.310;17.016;2023-02-10T15:43:35;47.00;;;23.00;;
65071;SDS011;51663;52.310;17.016;2023-02-10T15:46:41;46.63;;;25.03;;
65071;SDS011;51663;52.310;17.016;2023-02-10T15:49:43;40.20;;;22.30;;
65071;SDS011;51663;52.310;17.016;2023-02-10T15:52:47;45.47;;;23.00;;
65071;SDS011;51663;52.310;17.016;2023-02-10T15:55:50;50.50;;;23.57;;
65071;SDS011;51663;52.310;17.016;2023-02-10T15:58:52;45.33;;;22.93;;
65071;SDS011;51663;52.310;17.016;2023-02-10T16:01:59;47.77;;;23.37;;
65071;SDS011;51663;52.310;17.016;2023-02-10T16:05:05;44.03;;;22.90;;
65071;SDS011;51663;52.310;17.016;2023-02-10T16:08:41;55.43;;;24.87;;
65071;SDS011;51663;52.310;17.016;2023-02-10T16:11:36;53.50;;;24.77;;
65071;SDS011;51663;52.310;17.016;2023-02-10T16:14:39;56.20;;;25.80;;
65071;SDS011;51663;52.310;17.016;2023-02-10T16:17:42;56.97;;;25.30;;
65071;SDS011;51663;52.310;17.016;2023-02-10T16:20:47;57.40;;;25.30;;
65071;SDS011;51663;52.310;17.016;2023-02-10T16:23:49;60.13;;;26.63;;
65071;SDS011;51663;52.310;17.016;2023-02-10T16:26:51;53.37;;;26.37;;
65071;SDS011;51663;52.310;17.016;2023-02-10T16:29:55;58.63;;;27.07;;
65071;SDS011;51663;52.310;17.016;2023-02-10T16:32:57;52.00;;;23.60;;
65071;SDS011;51663;52.310;17.016;2023-02-10T16:36:00;51.30;;;25.30;;
65071;SDS011;51663;52.310;17.016;2023-02-10T16:39:20;49.77;;;23.90;;
65071;SDS011;51663;52.310;17.016;2023-02-10T16:42:24;48.60;;;22.07;;
65071;SDS011;51663;52.310;17.016;2023-02-10T16:45:27;46.50;;;20.57;;
65071;SDS011;51663;52.310;17.016;2023-02-10T16:48:31;43.83;;;20.50;;
65071;SDS011;51663;52.310;17.016;2023-02-10T16:51:33;42.33;;;20.63;;
65071;SDS011;51663;52.310;17.016;2023-02-10T16:54:36;46.50;;;21.57;;
65071;SDS011;51663;52.310;17.016;2023-02-10T16:57:38;46.80;;;20.00;;
65071;SDS011;51663;52.310;17.016;2023-02-10T17:00:41;47.73;;;19.67;;
65071;SDS011;51663;52.310;17.016;2023-02-10T17:03:44;42.00;;;20.30;;
65071;SDS011;51663;52.310;17.016;2023-02-10T17:06:48;44.00;;;20.70;;
65071;SDS011;51663;52.310;17.016;2023-02-10T17:09:53;43.27;;;20.07;;
65071;SDS011;51663;52.310;17.016;2023-02-10T17:12:56;39.83;;;19.37;;
65071;SDS011;51663;52.310;17.016;2023-02-10T17:15:58;37.83;;;18.77;;
65071;SDS011;51663;52.310;17.016;2023-02-10T17:19:01;43.00;;;19.37;;
65071;SDS011;51663;52.310;17.016;2023-02-10T17:22:04;34.93;;;17.63;;
65071;SDS011;51663;52.310;17.016;2023-02-10T17:25:08;41.27;;;18.03;;
65071;SDS011;51663;52.310;17.016;2023-02-10T17:28:10;37.97;;;18.73;;
65071;SDS011;51663;52.310;17.016;2023-02-10T17:31:17;40.60;;;18.10;;
65071;SDS011;51663;52.310;17.016;2023-02-10T17:34:21;36.33;;;17.73;;
65071;SDS011;51663;52.310;17.016;2023-02-10T17:37:24;34.63;;;17.27;;
65071;SDS011;51663;52.310;17.016;2023-02-10T17:40:26;35.27;;;16.30;;
65071;SDS011;51663;52.310;17.016;2023-02-10T17:43:32;33.87;;;16.23;;
65071;SDS011;51663;52.310;17.016;2023-02-10T17:46:34;34.63;;;17.03;;
65071;SDS011;51663;52.310;17.016;2023-02-10T17:49:37;33.23;;;17.17;;
65071;SDS011;51663;52.310;17.016;2023-02-10T17:52:39;39.50;;;17.87;;
65071;SDS011;51663;52.310;17.016;2023-02-10T17:55:41;36.77;;;17.80;;
65071;SDS011;51663;52.310;17.016;2023-02-10T17:58:43;41.43;;;17.47;;
65071;SDS011;51663;52.310;17.016;2023-02-10T18:01:46;36.87;;;17.43;;
65071;SDS011;51663;52.310;17.016;2023-02-10T18:04:48;38.73;;;17.63;;
65071;SDS011;51663;52.310;17.016;2023-02-10T18:07:51;36.07;;;17.83;;
65071;SDS011;51663;52.310;17.016;2023-02-10T18:10:53;37.00;;;17.57;;
65071;SDS011;51663;52.310;17.016;2023-02-10T18:13:58;38.37;;;18.30;;
65071;SDS011;51663;52.310;17.016;2023-02-10T18:17:00;35.17;;;16.77;;
65071;SDS011;51663;52.310;17.016;2023-02-10T18:20:04;42.07;;;19.13;;
65071;SDS011;51663;52.310;17.016;2023-02-10T18:23:06;39.47;;;19.10;;
65071;SDS011;51663;52.310;17.016;2023-02-10T18:26:10;37.90;;;18.43;;
65071;SDS011;51663;52.310;17.016;2023-02-10T18:29:13;32.87;;;17.17;;
65071;SDS011;51663;52.310;17.016;2023-02-10T18:32:15;40.03;;;18.10;;
65071;SDS011;51663;52.310;17.016;2023-02-10T18:35:17;41.33;;;18.70;;
65071;SDS011;51663;52.310;17.016;2023-02-10T18:38:21;48.87;;;19.53;;
65071;SDS011;51663;52.310;17.016;2023-02-10T18:41:23;40.13;;;19.73;;
65071;SDS011;51663;52.310;17.016;2023-02-10T18:44:26;47.13;;;20.70;;
65071;SDS011;51663;52.310;17.016;2023-02-10T18:47:28;41.57;;;20.10;;
65071;SDS011;51663;52.310;17.016;2023-02-10T18:50:30;43.93;;;20.07;;
65071;SDS011;51663;52.310;17.016;2023-02-10T18:53:33;67.37;;;33.33;;
65071;SDS011;51663;52.310;17.016;2023-02-10T18:56:41;43.63;;;21.30;;
65071;SDS011;51663;52.310;17.016;2023-02-10T18:59:43;46.80;;;21.63;;
65071;SDS011;51663;52.310;17.016;2023-02-10T19:02:46;48.70;;;23.07;;
65071;SDS011;51663;52.310;17.016;2023-02-10T19:05:48;44.57;;;22.03;;
65071;SDS011;51663;52.310;17.016;2023-02-10T19:08:51;48.33;;;23.37;;
65071;SDS011;51663;52.310;17.016;2023-02-10T19:11:53;45.90;;;23.67;;
65071;SDS011;51663;52.310;17.016;2023-02-10T19:14:55;46.47;;;22.87;;
65071;SDS011;51663;52.310;17.016;2023-02-10T19:17:57;47.80;;;24.27;;
65071;SDS011;51663;52.310;17.016;2023-02-10T19:21:00;50.47;;;23.93;;
65071;SDS011;51663;52.310;17.016;2023-02-10T19:24:03;51.10;;;23.37;;
65071;SDS011;51663;52.310;17.016;2023-02-10T19:27:06;49.03;;;24.27;;
65071;SDS011;51663;52.310;17.016;2023-02-10T19:30:12;54.57;;;26.03;;
65071;SDS011;51663;52.310;17.016;2023-02-10T19:33:14;57.40;;;26.77;;
65071;SDS011;51663;52.310;17.016;2023-02-10T19:36:18;57.23;;;27.40;;
65071;SDS011;51663;52.310;17.016;2023-02-10T19:39:21;65.57;;;29.77;;
65071;SDS011;51663;52.310;17.016;2023-02-10T19:42:23;74.00;;;32.43;;